sensor_id;sensor_type;location;lat;lon;timestamp;pressure;altitude;pressure_sealevel;temperature;humidity
53940;BME280;39850;43.324;21.916;2023-04-12T00:02:51;985.0;;;10.0;79.0
53940;BME280;39850;43.324;21.916;2023-04-12T00:07:28;985.0;;;10.0;79.0
53940;BME280;39850;43.324;21.916;2023-04-12T00:39:47;985.0;;;9.2;80.0
53940;BME280;39850;43.324;21.916;2023-04-12T00:44:24;985.0;;;9.2;80.0
53940;BME280;39850;43.324;21.916;2023-04-12T00:49:03;985.0;;;9.2;80.0
53940;BME280;39850;43.324;21.916;2023-04-12T00:53:42;985.0;;;9.5;80.0
53940;BME280;39850;43.324;21.916;2023-04-12T00:58:23;985.0;;;9.5;80.0
53940;BME280;39850;43.324;21.916;2023-04-12T01:03:03;985.0;;;9.8;80.0
53940;BME280;39850;43.324;21.916;2023-04-12T01:08:14;985.0;;;9.8;80.0
53940;BME280;39850;43.324;21.916;2023-04-12T01:13:40;985.0;;;9.9;80.0
53940;BME280;39850;43.324;21.916;2023-04-12T01:18:40;985.0;;;9.9;80.0
53940;BME280;39850;43.324;21.916;2023-04-12T01:24:19;985.0;;;10.0;80.0
53940;BME280;39850;43.324;21.916;2023-04-12T02:02:08;985.0;;;9.8;75.0
53940;BME280;39850;43.324;21.916;2023-04-12T02:06:48;985.0;;;9.8;75.0
53940;BME280;39850;43.324;21.916;2023-04-12T02:11:25;985.0;;;9.8;74.0
53940;BME280;39850;43.324;21.916;2023-04-12T02:16:02;985.0;;;9.8;74.0
53940;BME280;39850;43.324;21.916;2023-04-12T02:20:40;985.0;;;9.8;74.0
53940;BME280;39850;43.324;21.916;2023-04-12T02:25:17;985.0;;;9.8;74.0
53940;BME280;39850;43.324;21.916;2023-04-12T02:29:54;985.0;;;9.8;73.0
53940;BME280;39850;43.324;21.916;2023-04-12T02:34:31;985.0;;;9.8;73.0
53940;BME280;39850;43.324;21.916;2023-04-12T02:39:08;985.0;;;9.8;73.0
53940;BME280;39850;43.324;21.916;2023-04-12T02:43:46;985.0;;;9.8;73.0
53940;BME280;39850;43.324;21.916;2023-04-12T02:48:23;985.0;;;9.8;73.0
53940;BME280;39850;43.324;21.916;2023-04-12T03:21:02;985.0;;;9.8;72.0
53940;BME280;39850;43.324;21.916;2023-04-12T03:25:39;985.0;;;9.8;72.0
53940;BME280;39850;43.324;21.916;2023-04-12T03:30:16;985.0;;;9.8;72.0
53940;BME280;39850;43.324;21.916;2023-04-12T03:34:52;985.0;;;9.8;72.0
53940;BME280;39850;43.324;21.916;2023-04-12T03:39:29;985.0;;;9.8;72.0
53940;BME280;39850;43.324;21.916;2023-04-12T03:44:06;985.0;;;9.8;72.0
53940;BME280;39850;43.324;21.916;2023-04-12T03:48:43;985.0;;;9.8;72.0
53940;BME280;39850;43.324;21.916;2023-04-12T03:53:20;985.0;;;9.8;72.0
53940;BME280;39850;43.324;21.916;2023-04-12T03:57:56;985.0;;;9.8;72.0
53940;BME280;39850;43.324;21.916;2023-04-12T04:02:33;985.0;;;9.8;72.0
53940;BME280;39850;43.324;21.916;2023-04-12T04:07:12;985.0;;;9.8;72.0
53940;BME280;39850;43.324;21.916;2023-04-12T04:44:05;985.0;;;9.8;72.0
53940;BME280;39850;43.324;21.916;2023-04-12T04:48:42;985.0;;;9.8;72.0
53940;BME280;39850;43.324;21.916;2023-04-12T04:53:22;985.0;;;9.8;72.0
53940;BME280;39850;43.324;21.916;2023-04-12T04:57:59;985.0;;;9.8;72.0
53940;BME280;39850;43.324;21.916;2023-04-12T05:02:36;985.0;;;9.8;72.0
53940;BME280;39850;43.324;21.916;2023-04-12T05:07:13;985.0;;;9.8;72.0
53940;BME280;39850;43.324;21.916;2023-04-12T05:11:50;986.0;;;9.8;72.0
53940;BME280;39850;43.324;21.916;2023-04-12T05:16:27;986.0;;;9.8;72.0
53940;BME280;39850;43.324;21.916;2023-04-12T05:21:06;986.0;;;9.8;72.0
53940;BME280;39850;43.324;21.916;2023-04-12T05:25:47;986.0;;;9.8;72.0
53940;BME280;39850;43.324;21.916;2023-04-12T06:02:47;986.0;;;10.4;72.0
53940;BME280;39850;43.324;21.916;2023-04-12T06:07:24;986.0;;;10.4;72.0
53940;BME280;39850;43.324;21.916;2023-04-12T06:12:01;986.0;;;10.6;70.0
53940;BME280;39850;43.324;21.916;2023-04-12T06:16:38;986.0;;;10.6;70.0
53940;BME280;39850;43.324;21.916;2023-04-12T06:21:15;986.0;;;10.7;69.0
53940;BME280;39850;43.324;21.916;2023-04-12T06:25:51;986.0;;;10.7;69.0
53940;BME280;39850;43.324;21.916;2023-04-12T06:30:28;986.0;;;10.7;68.0
53940;BME280;39850;43.324;21.916;2023-04-12T06:35:07;986.0;;;10.7;68.0
53940;BME280;39850;43.324;21.916;2023-04-12T06:39:43;986.0;;;10.7;68.0
53940;BME280;39850;43.324;21.916;2023-04-12T06:44:20;986.0;;;10.7;68.0
53940;BME280;39850;43.324;21.916;2023-04-12T06:48:56;986.0;;;10.7;68.0
53940;BME280;39850;43.324;21.916;2023-04-12T07:21:12;985.0;;;12.1;60.0
53940;BME280;39850;43.324;21.916;2023-04-12T07:25:49;985.0;;;12.1;60.0
53940;BME280;39850;43.324;21.916;2023-04-12T07:30:26;985.0;;;12.1;60.0
53940;BME280;39850;43.324;21.916;2023-04-12T07:35:06;985.0;;;12.2;60.0
53940;BME280;39850;43.324;21.916;2023-04-12T07:39:44;985.0;;;12.2;60.0
53940;BME280;39850;43.324;21.916;2023-04-12T07:44:21;985.0;;;12.1;60.0
53940;BME280;39850;43.324;21.916;2023-04-12T07:48:57;985.0;;;12.1;60.0
53940;BME280;39850;43.324;21.916;2023-04-12T07:53:34;985.0;;;12.0;60.0
53940;BME280;39850;43.324;21.916;2023-04-12T07:58:11;985.0;;;12.0;60.0
53940;BME280;39850;43.324;21.916;2023-04-12T08:02:48;985.0;;;11.8;62.0
53940;BME280;39850;43.324;21.916;2023-04-12T08:07:26;985.0;;;11.8;62.0
53940;BME280;39850;43.324;21.916;2023-04-12T08:53:53;985.0;;;13.9;49.0
53940;BME280;39850;43.324;21.916;2023-04-12T08:58:32;985.0;;;13.9;49.0
53940;BME280;39850;43.324;21.916;2023-04-12T09:03:09;985.0;;;13.6;48.0
53940;BME280;39850;43.324;21.916;2023-04-12T09:07:46;985.0;;;13.6;48.0
53940;BME280;39850;43.324;21.916;2023-04-12T09:12:25;985.0;;;13.6;48.0
53940;BME280;39850;43.324;21.916;2023-04-12T09:17:03;985.0;;;13.6;48.0
53940;BME280;39850;43.324;21.916;2023-04-12T09:21:55;985.0;;;13.3;47.0
53940;BME280;39850;43.324;21.916;2023-04-12T09:26:32;985.0;;;13.3;47.0
53940;BME280;39850;43.324;21.916;2023-04-12T10:04:12;984.0;;;15.3;37.0
53940;BME280;39850;43.324;21.916;2023-04-12T10:08:50;984.0;;;15.3;37.0
53940;BME280;39850;43.324;21.916;2023-04-12T10:13:32;984.0;;;15.4;37.0
53940;BME280;39850;43.324;21.916;2023-04-12T10:18:17;984.0;;;15.4;37.0
53940;BME280;39850;43.324;21.916;2023-04-12T10:22:56;984.0;;;15.3;37.0
53940;BME280;39850;43.324;21.916;2023-04-12T10:27:33;984.0;;;15.3;37.0
53940;BME280;39850;43.324;21.916;2023-04-12T10:32:25;984.0;;;15.0;38.0
53940;BME280;39850;43.324;21.916;2023-04-12T10:37:02;984.0;;;15.0;38.0
53940;BME280;39850;43.324;21.916;2023-04-12T10:42:20;984.0;;;14.6;39.0
53940;BME280;39850;43.324;21.916;2023-04-12T10:46:57;984.0;;;14.6;39.0
53940;BME280;39850;43.324;21.916;2023-04-12T11:25:01;984.0;;;12.7;40.0
53940;BME280;39850;43.324;21.916;2023-04-12T11:29:39;984.0;;;12.7;40.0
53940;BME280;39850;43.324;21.916;2023-04-12T11:34:19;984.0;;;12.8;40.0
53940;BME280;39850;43.324;21.916;2023-04-12T11:38:56;984.0;;;12.8;40.0
53940;BME280;39850;43.324;21.916;2023-04-12T11:43:37;984.0;;;12.9;40.0
53940;BME280;39850;43.324;21.916;2023-04-12T11:48:15;984.0;;;12.9;40.0
53940;BME280;39850;43.324;21.916;2023-04-12T11:52:51;984.0;;;13.2;40.0
53940;BME280;39850;43.324;21.916;2023-04-12T11:57:28;984.0;;;13.2;40.0
53940;BME280;39850;43.324;21.916;2023-04-12T12:02:09;984.0;;;13.6;40.0
53940;BME280;39850;43.324;21.916;2023-04-12T12:06:47;984.0;;;13.6;40.0
53940;BME280;39850;43.324;21.916;2023-04-12T12:44:10;984.0;;;13.7;37.0
53940;BME280;39850;43.324;21.916;2023-04-12T12:48:48;984.0;;;13.7;37.0
53940;BME280;39850;43.324;21.916;2023-04-12T12:53:25;984.0;;;13.4;37.0
53940;BME280;39850;43.324;21.916;2023-04-12T12:58:01;984.0;;;13.4;37.0
53940;BME280;39850;43.324;21.916;2023-04-12T13:02:39;984.0;;;13.1;38.0
53940;BME280;39850;43.324;21.916;2023-04-12T13:07:15;984.0;;;13.1;38.0
53940;BME280;39850;43.324;21.916;2023-04-12T13:11:52;984.0;;;12.9;38.0
53940;BME280;39850;43.324;21.916;2023-04-12T13:16:29;984.0;;;12.9;38.0
53940;BME280;39850;43.324;21.916;2023-04-12T13:21:07;984.0;;;12.9;38.0
53940;BME280;39850;43.324;21.916;2023-04-12T13:25:43;984.0;;;12.7;38.0
53940;BME280;39850;43.324;21.916;2023-04-12T13:30:20;984.0;;;12.7;38.0
53940;BME280;39850;43.324;21.916;2023-04-12T14:02:38;984.0;;;12.7;37.0
53940;BME280;39850;43.324;21.916;2023-04-12T14:07:15;984.0;;;12.7;37.0
53940;BME280;39850;43.324;21.916;2023-04-12T14:11:59;984.0;;;12.7;38.0
53940;BME280;39850;43.324;21.916;2023-04-12T14:16:36;984.0;;;12.7;38.0
53940;BME280;39850;43.324;21.916;2023-04-12T14:21:13;984.0;;;12.7;38.0
53940;BME280;39850;43.324;21.916;2023-04-12T14:25:55;984.0;;;12.7;38.0
53940;BME280;39850;43.324;21.916;2023-04-12T14:30:32;984.0;;;12.7;38.0
53940;BME280;39850;43.324;21.916;2023-04-12T14:35:09;984.0;;;12.7;38.0
53940;BME280;39850;43.324;21.916;2023-04-12T14:39:45;984.0;;;12.7;38.0
53940;BME280;39850;43.324;21.916;2023-04-12T14:44:22;984.0;;;12.7;38.0
53940;BME280;39850;43.324;21.916;2023-04-12T14:48:59;984.0;;;12.7;38.0
53940;BME280;39850;43.324;21.916;2023-04-12T15:25:59;984.0;;;12.7;35.0
53940;BME280;39850;43.324;21.916;2023-04-12T15:30:36;984.0;;;12.7;35.0
53940;BME280;39850;43.324;21.916;2023-04-12T15:35:12;984.0;;;12.7;34.0
53940;BME280;39850;43.324;21.916;2023-04-12T15:39:49;984.0;;;12.7;34.0
53940;BME280;39850;43.324;21.916;2023-04-12T15:44:26;984.0;;;12.7;35.0
53940;BME280;39850;43.324;21.916;2023-04-12T15:49:03;984.0;;;12.7;35.0
53940;BME280;39850;43.324;21.916;2023-04-12T15:53:39;984.0;;;12.7;35.0
53940;BME280;39850;43.324;21.916;2023-04-12T15:58:16;984.0;;;12.7;35.0
53940;BME280;39850;43.324;21.916;2023-04-12T16:02:53;984.0;;;12.7;36.0
53940;BME280;39850;43.324;21.916;2023-04-12T16:07:31;984.0;;;12.7;36.0
53940;BME280;39850;43.324;21.916;2023-04-12T16:44:29;984.0;;;11.8;36.0
53940;BME280;39850;43.324;21.916;2023-04-12T16:49:06;984.0;;;11.8;36.0
53940;BME280;39850;43.324;21.916;2023-04-12T16:53:43;984.0;;;11.9;36.0
53940;BME280;39850;43.324;21.916;2023-04-12T16:58:19;984.0;;;11.9;36.0
53940;BME280;39850;43.324;21.916;2023-04-12T17:02:56;984.0;;;11.9;36.0
53940;BME280;39850;43.324;21.916;2023-04-12T17:07:32;984.0;;;11.9;36.0
53940;BME280;39850;43.324;21.916;2023-04-12T17:12:09;984.0;;;11.9;36.0
53940;BME280;39850;43.324;21.916;2023-04-12T17:16:46;984.0;;;12.3;36.0
53940;BME280;39850;43.324;21.916;2023-04-12T17:21:22;984.0;;;12.3;36.0
53940;BME280;39850;43.324;21.916;2023-04-12T17:25:59;984.0;;;12.7;36.0
53940;BME280;39850;43.324;21.916;2023-04-12T17:30:36;984.0;;;12.7;36.0
53940;BME280;39850;43.324;21.916;2023-04-12T18:16:41;984.0;;;13.7;38.0
53940;BME280;39850;43.324;21.916;2023-04-12T18:21:18;984.0;;;13.7;38.0
53940;BME280;39850;43.324;21.916;2023-04-12T18:25:54;984.0;;;13.7;38.0
53940;BME280;39850;43.324;21.916;2023-04-12T18:30:31;984.0;;;13.7;38.0
53940;BME280;39850;43.324;21.916;2023-04-12T18:35:09;984.0;;;13.7;38.0
53940;BME280;39850;43.324;21.916;2023-04-12T18:39:45;984.0;;;13.7;38.0
53940;BME280;39850;43.324;21.916;2023-04-12T18:44:22;984.0;;;13.7;38.0
53940;BME280;39850;43.324;21.916;2023-04-12T18:48:59;984.0;;;13.7;38.0
53940;BME280;39850;43.324;21.916;2023-04-12T19:25:55;985.0;;;11.7;44.0
53940;BME280;39850;43.324;21.916;2023-04-12T19:30:32;985.0;;;11.7;44.0
53940;BME280;39850;43.324;21.916;2023-04-12T19:35:09;985.0;;;11.8;44.0
53940;BME280;39850;43.324;21.916;2023-04-12T19:39:46;985.0;;;11.8;44.0
53940;BME280;39850;43.324;21.916;2023-04-12T19:44:25;985.0;;;11.7;44.0
53940;BME280;39850;43.324;21.916;2023-04-12T19:49:02;985.0;;;11.7;44.0
53940;BME280;39850;43.324;21.916;2023-04-12T19:53:38;985.0;;;11.6;45.0
53940;BME280;39850;43.324;21.916;2023-04-12T19:58:15;985.0;;;11.6;45.0
53940;BME280;39850;43.324;21.916;2023-04-12T20:02:53;985.0;;;11.4;46.0
53940;BME280;39850;43.324;21.916;2023-04-12T20:07:30;985.0;;;11.4;46.0
53940;BME280;39850;43.324;21.916;2023-04-12T20:12:07;985.0;;;11.4;46.0
53940;BME280;39850;43.324;21.916;2023-04-12T20:44:24;985.0;;;10.0;50.0
53940;BME280;39850;43.324;21.916;2023-04-12T20:49:00;985.0;;;10.0;50.0
53940;BME280;39850;43.324;21.916;2023-04-12T20:53:37;985.0;;;10.0;50.0
53940;BME280;39850;43.324;21.916;2023-04-12T20:58:13;985.0;;;10.0;50.0
53940;BME280;39850;43.324;21.916;2023-04-12T21:02:49;985.0;;;10.0;50.0
53940;BME280;39850;43.324;21.916;2023-04-12T21:07:26;985.0;;;10.0;51.0
53940;BME280;39850;43.324;21.916;2023-04-12T21:12:04;985.0;;;10.0;51.0
53940;BME280;39850;43.324;21.916;2023-04-12T21:16:42;985.0;;;9.4;52.0
53940;BME280;39850;43.324;21.916;2023-04-12T21:21:18;985.0;;;9.4;52.0
53940;BME280;39850;43.324;21.916;2023-04-12T21:25:54;985.0;;;8.9;52.0
53940;BME280;39850;43.324;21.916;2023-04-12T21:30:32;985.0;;;8.9;52.0
53940;BME280;39850;43.324;21.916;2023-04-12T22:07:29;985.0;;;8.2;57.0
53940;BME280;39850;43.324;21.916;2023-04-12T22:12:07;985.0;;;8.2;57.0
53940;BME280;39850;43.324;21.916;2023-04-12T22:16:44;985.0;;;8.2;58.0
53940;BME280;39850;43.324;21.916;2023-04-12T22:21:21;985.0;;;8.2;58.0
53940;BME280;39850;43.324;21.916;2023-04-12T22:25:57;985.0;;;8.2;58.0
53940;BME280;39850;43.324;21.916;2023-04-12T22:30:35;985.0;;;8.2;58.0
53940;BME280;39850;43.324;21.916;2023-04-12T22:35:12;985.0;;;8.1;58.0
53940;BME280;39850;43.324;21.916;2023-04-12T22:39:48;985.0;;;8.1;58.0
53940;BME280;39850;43.324;21.916;2023-04-12T22:44:26;985.0;;;8.0;58.0
53940;BME280;39850;43.324;21.916;2023-04-12T22:49:03;985.0;;;8.0;58.0
53940;BME280;39850;43.324;21.916;2023-04-12T23:25:55;985.0;;;6.2;61.0
53940;BME280;39850;43.324;21.916;2023-04-12T23:30:32;985.0;;;6.2;61.0
53940;BME280;39850;43.324;21.916;2023-04-12T23:35:09;985.0;;;6.2;61.0
53940;BME280;39850;43.324;21.916;2023-04-12T23:39:45;985.0;;;6.2;61.0
53940;BME280;39850;43.324;21.916;2023-04-12T23:44:22;985.0;;;6.2;61.0
53940;BME280;39850;43.324;21.916;2023-04-12T23:48:59;985.0;;;6.2;61.0
53940;BME280;39850;43.324;21.916;2023-04-12T23:53:36;985.0;;;6.2;61.0
53940;BME280;39850;43.324;21.916;2023-04-12T23:58:14;985.0;;;6.2;61.0
